createdAt,value
2019-04-25T00:01:27.267Z,29.97
2019-04-25T00:04:02.169Z,29.33
2019-04-25T00:06:37.191Z,29.40
2019-04-25T00:09:16.354Z,29.30
2019-04-25T00:11:52.247Z,29.33
2019-04-25T00:14:27.467Z,29.77
2019-04-25T00:17:02.661Z,29.40
2019-04-25T00:19:38.670Z,29.97
2019-04-25T00:22:39.300Z,29.43
2019-04-25T00:25:25.898Z,29.33
2019-04-25T00:28:01.819Z,30.20
2019-04-25T00:30:40.313Z,29.57
2019-04-25T00:33:15.324Z,29.77
2019-04-25T00:35:51.674Z,29.23
2019-04-25T00:38:26.702Z,29.43
2019-04-25T00:41:01.869Z,29.53
2019-04-25T00:43:36.734Z,29.37
2019-04-25T00:46:11.638Z,29.53
2019-04-25T00:48:46.446Z,29.40
2019-04-25T00:51:22.232Z,30.50
2019-04-25T00:53:56.964Z,30.40
2019-04-25T00:56:32.184Z,30.30
2019-04-25T00:59:15.402Z,30.30
2019-04-25T01:02:01.469Z,29.37
2019-04-25T01:04:36.483Z,29.27
2019-04-25T01:07:12.679Z,28.90
2019-04-25T01:09:47.898Z,29.67
2019-04-25T01:12:23.887Z,29.57
2019-04-25T01:14:58.715Z,29.67
2019-04-25T01:17:33.604Z,29.90
2019-04-25T01:20:08.912Z,30.40
2019-04-25T01:22:45.780Z,30.13
2019-04-25T01:25:23.361Z,29.73
2019-04-25T01:27:58.315Z,30.00
2019-04-25T01:30:33.977Z,29.90
2019-04-25T01:33:09.860Z,30.20
2019-04-25T01:35:51.379Z,29.53
2019-04-25T01:38:35.855Z,29.33
2019-04-25T01:41:38.956Z,29.27
2019-04-25T01:44:26.412Z,29.27
2019-04-25T01:47:01.483Z,29.50
2019-04-25T01:49:36.307Z,30.03
2019-04-25T01:52:11.235Z,30.53
2019-04-25T01:54:46.046Z,30.23
2019-04-25T01:57:20.894Z,29.97
2019-04-25T01:59:56.290Z,29.87
2019-04-25T02:02:33.552Z,29.97
2019-04-25T02:05:09.051Z,29.27
2019-04-25T02:07:44.427Z,29.87
2019-04-25T02:10:19.843Z,29.90
2019-04-25T02:12:57.829Z,29.23
2019-04-25T02:15:33.531Z,29.20
2019-04-25T02:18:08.361Z,30.00
2019-04-25T02:20:43.667Z,29.27
2019-04-25T02:23:18.503Z,29.70
2019-04-25T02:26:09.697Z,30.00
2019-04-25T02:28:31.217Z,29.30
2019-04-25T02:31:08.832Z,29.83
2019-04-25T02:33:44.320Z,29.80
2019-04-25T02:36:18.981Z,29.40
2019-04-25T02:38:57.554Z,29.13
2019-04-25T02:41:30.358Z,29.40
2019-04-25T02:44:09.257Z,29.23
2019-04-25T02:47:08.198Z,29.10
2019-04-25T02:50:01.943Z,29.73
2019-04-25T02:52:46.308Z,29.57
2019-04-25T02:55:31.140Z,29.70
2019-04-25T02:57:58.328Z,29.60
2019-04-25T03:00:49.252Z,29.60
2019-04-25T03:03:09.954Z,29.77
2019-04-25T03:05:47.181Z,29.00
2019-04-25T03:08:21.269Z,29.40
2019-04-25T03:10:58.212Z,29.40
2019-04-25T03:13:34.287Z,29.27
2019-04-25T03:16:11.003Z,29.27
2019-04-25T03:19:00.418Z,29.73
2019-04-25T03:21:36.019Z,29.63
2019-04-25T03:24:13.922Z,30.07
2019-04-25T03:26:47.367Z,30.17
2019-04-25T03:29:22.080Z,29.77
2019-04-25T03:31:56.862Z,29.67
2019-04-25T03:34:31.591Z,29.40
2019-04-25T03:37:07.708Z,29.50
2019-04-25T03:39:43.652Z,29.07
2019-04-25T03:42:18.524Z,29.40
2019-04-25T03:44:54.303Z,29.43
2019-04-25T03:47:29.086Z,29.23
2019-04-25T03:50:05.874Z,29.70
2019-04-25T03:52:40.768Z,30.17
2019-04-25T03:55:15.486Z,29.57
2019-04-25T03:57:50.211Z,30.03
2019-04-25T04:00:24.939Z,29.13
2019-04-25T04:02:59.714Z,29.00
2019-04-25T04:05:34.582Z,29.90
2019-04-25T04:08:09.763Z,30.20
2019-04-25T04:10:44.679Z,29.83
2019-04-25T04:13:19.374Z,29.50
2019-04-25T04:15:54.246Z,31.07
2019-04-25T04:18:41.172Z,29.97
2019-04-25T04:21:33.828Z,29.50
2019-04-25T04:24:18.839Z,29.37
2019-04-25T04:27:12.129Z,29.60
2019-04-25T04:29:47.247Z,29.37
2019-04-25T04:32:21.971Z,29.70
2019-04-25T04:34:56.683Z,30.10
2019-04-25T04:37:31.375Z,30.13
2019-04-25T04:40:07.907Z,31.13
2019-04-25T04:42:43.505Z,29.93
2019-04-25T04:45:18.411Z,29.77
2019-04-25T04:47:54.179Z,29.37
2019-04-25T04:50:28.895Z,29.93
2019-04-25T04:53:03.925Z,29.27
2019-04-25T04:55:40.020Z,29.70
2019-04-25T04:58:16.056Z,29.77
2019-04-25T05:00:51.135Z,29.30
2019-04-25T05:03:34.321Z,29.53
2019-04-25T05:06:15.323Z,29.33
2019-04-25T05:09:00.680Z,29.00
2019-04-25T05:11:37.023Z,29.20
2019-04-25T05:14:11.844Z,30.77
2019-04-25T05:16:49.418Z,35.83
2019-04-25T05:19:23.857Z,33.17
2019-04-25T05:21:58.690Z,33.27
2019-04-25T05:24:33.867Z,33.00
2019-04-25T05:27:08.768Z,32.93
2019-04-25T05:29:43.958Z,31.30
2019-04-25T05:32:19.203Z,31.87
2019-04-25T05:34:54.024Z,31.40
2019-04-25T05:37:28.749Z,31.90
2019-04-25T05:40:05.600Z,31.33
2019-04-25T05:43:08.422Z,30.23
2019-04-25T05:45:43.982Z,29.83
2019-04-25T05:48:19.020Z,30.13
2019-04-25T05:50:53.838Z,30.13
2019-04-25T05:53:28.596Z,31.47
2019-04-25T05:56:04.184Z,31.17
2019-04-25T05:58:39.019Z,30.70
2019-04-25T06:01:13.743Z,30.47
2019-04-25T06:03:48.443Z,30.73
2019-04-25T06:06:24.700Z,30.50
2019-04-25T06:09:08.603Z,30.20
2019-04-25T06:11:54.928Z,30.07
2019-04-25T06:14:29.635Z,29.77
2019-04-25T06:17:07.627Z,30.40
2019-04-25T06:19:51.248Z,30.43
2019-04-25T06:22:45.065Z,30.43
2019-04-25T06:25:24.070Z,30.77
2019-04-25T06:27:59.839Z,30.63
2019-04-25T06:30:35.213Z,30.30
2019-04-25T06:33:10.130Z,30.57
2019-04-25T06:35:44.819Z,30.43
2019-04-25T06:38:19.532Z,30.40
2019-04-25T06:40:54.235Z,30.23
2019-04-25T06:43:28.962Z,30.37
2019-04-25T06:46:31.867Z,30.17
2019-04-25T06:49:26.851Z,30.33
2019-04-25T06:52:02.228Z,30.73
2019-04-25T06:54:37.562Z,30.03
2019-04-25T06:57:12.283Z,30.63
2019-04-25T06:59:48.055Z,31.03
2019-04-25T07:02:25.407Z,30.90
2019-04-25T07:05:00.247Z,30.93
2019-04-25T07:07:35.243Z,30.70
2019-04-25T07:10:10.211Z,31.13
2019-04-25T07:12:44.984Z,30.87
2019-04-25T07:15:19.771Z,31.93
2019-04-25T07:17:54.484Z,30.77
2019-04-25T07:20:30.161Z,30.77
2019-04-25T07:23:05.379Z,30.83
2019-04-25T07:25:44.148Z,31.40
2019-04-25T07:28:57.341Z,32.10
2019-04-25T07:31:48.631Z,32.43
2019-04-25T07:34:26.025Z,33.07
2019-04-25T07:37:00.955Z,34.33
2019-04-25T07:39:36.458Z,33.47
2019-04-25T07:42:11.306Z,33.27
2019-04-25T07:44:52.080Z,33.17
2019-04-25T07:47:24.248Z,33.23
2019-04-25T07:50:00.199Z,33.80
2019-04-25T07:52:35.759Z,36.70
2019-04-25T07:55:10.655Z,36.40
2019-04-25T07:57:45.500Z,33.57
2019-04-25T08:00:23.893Z,33.37
2019-04-25T08:02:58.744Z,32.37
2019-04-25T08:05:35.176Z,31.50
2019-04-25T08:08:10.193Z,32.43
2019-04-25T08:11:10.725Z,32.23
2019-04-25T08:13:54.647Z,31.80
2019-04-25T08:16:31.075Z,32.43
2019-04-25T08:19:06.795Z,31.68
2019-04-25T08:21:43.607Z,31.70
2019-04-25T08:24:18.603Z,31.60
2019-04-25T08:26:53.556Z,32.30
2019-04-25T08:29:28.473Z,32.90
2019-04-25T08:32:04.569Z,32.17
2019-04-25T08:34:39.523Z,32.00
2019-04-25T08:37:18.878Z,31.07
2019-04-25T08:39:50.883Z,30.47
2019-04-25T08:42:26.559Z,31.70
2019-04-25T08:45:01.279Z,32.27
2019-04-25T08:47:37.076Z,31.50
2019-04-25T08:50:28.743Z,32.43
2019-04-25T08:52:59.841Z,32.23
2019-04-25T08:56:00.107Z,32.53
2019-04-25T08:59:05.565Z,32.37
2019-04-25T09:01:47.955Z,32.20
2019-04-25T09:04:28.143Z,31.90
2019-04-25T09:07:03.383Z,31.53
2019-04-25T09:09:39.351Z,31.67
2019-04-25T09:12:14.126Z,31.93
2019-04-25T09:14:49.776Z,31.67
2019-04-25T09:17:24.491Z,32.10
2019-04-25T09:19:59.215Z,31.73
2019-04-25T09:22:36.510Z,32.17
2019-04-25T09:25:10.783Z,31.85
2019-04-25T09:27:47.007Z,31.73
2019-04-25T09:30:22.011Z,32.57
2019-04-25T09:32:56.735Z,32.83
2019-04-25T09:35:31.480Z,31.48
2019-04-25T09:38:06.319Z,31.52
2019-04-25T09:40:41.907Z,32.03
2019-04-25T09:43:16.848Z,31.33
2019-04-25T09:45:58.548Z,31.93
2019-04-25T09:48:58.149Z,31.33
2019-04-25T09:52:01.273Z,32.17
2019-04-25T09:54:50.043Z,32.53
2019-04-25T09:57:36.535Z,32.03
2019-04-25T10:00:20.553Z,32.10
2019-04-25T10:02:55.568Z,32.25
2019-04-25T10:05:30.483Z,31.77
2019-04-25T10:08:05.551Z,31.73
2019-04-25T10:10:40.550Z,31.70
2019-04-25T10:13:15.403Z,32.00
2019-04-25T10:16:12.494Z,31.65
2019-04-25T10:18:47.621Z,32.13
2019-04-25T10:21:24.007Z,32.17
2019-04-25T10:23:58.907Z,32.05
2019-04-25T10:26:34.952Z,32.30
2019-04-25T10:29:09.859Z,32.70
2019-04-25T10:31:45.209Z,32.20
2019-04-25T10:34:20.143Z,32.63
2019-04-25T10:36:54.943Z,32.50
2019-04-25T10:39:30.100Z,32.58
2019-04-25T10:42:05.136Z,32.48
2019-04-25T10:44:40.187Z,33.25
2019-04-25T10:47:15.079Z,32.23
2019-04-25T10:49:49.783Z,33.55
2019-04-25T10:52:24.657Z,33.23
2019-04-25T10:54:59.455Z,32.93
2019-04-25T10:57:34.228Z,32.23
2019-04-25T11:00:16.480Z,33.42
2019-04-25T11:02:52.344Z,32.67
2019-04-25T11:05:27.875Z,32.28
2019-04-25T11:08:04.262Z,32.15
2019-04-25T11:10:39.705Z,32.45
2019-04-25T11:13:15.516Z,32.30
2019-04-25T11:15:50.451Z,32.33
2019-04-25T11:18:25.462Z,33.02
2019-04-25T11:21:00.167Z,32.28
2019-04-25T11:23:34.993Z,32.53
2019-04-25T11:26:10.794Z,32.93
2019-04-25T11:28:45.855Z,31.87
2019-04-25T11:31:26.515Z,32.88
2019-04-25T11:34:01.455Z,32.25
2019-04-25T11:36:36.227Z,32.10
2019-04-25T11:39:31.916Z,32.23
2019-04-25T11:42:10.420Z,32.15
2019-04-25T11:44:45.713Z,31.75
2019-04-25T11:47:21.569Z,31.70
2019-04-25T11:49:56.283Z,32.03
2019-04-25T11:52:31.054Z,32.40
2019-04-25T11:55:06.727Z,32.20
2019-04-25T11:57:43.948Z,32.05
2019-04-25T12:00:24.266Z,32.30
2019-04-25T12:02:58.831Z,32.28
2019-04-25T12:05:34.382Z,31.73
2019-04-25T12:08:09.368Z,31.97
2019-04-25T12:10:45.799Z,31.73
2019-04-25T12:13:20.652Z,31.77
2019-04-25T12:15:55.735Z,31.90
2019-04-25T12:18:33.243Z,31.85
2019-04-25T12:21:06.911Z,31.77
2019-04-25T12:23:41.698Z,32.05
2019-04-25T12:26:16.496Z,31.93
2019-04-25T12:28:51.438Z,32.55
2019-04-25T12:31:26.309Z,31.82
2019-04-25T12:34:01.049Z,31.80
2019-04-25T12:36:35.827Z,32.13
2019-04-25T12:39:11.208Z,32.75
2019-04-25T12:41:48.121Z,32.58
2019-04-25T12:44:33.498Z,31.75
2019-04-25T12:47:13.613Z,32.28
2019-04-25T12:49:48.674Z,32.48
2019-04-25T12:52:24.650Z,33.02
2019-04-25T12:54:59.722Z,32.55
2019-04-25T12:57:34.547Z,32.78
2019-04-25T13:00:09.691Z,32.88
2019-04-25T13:02:44.794Z,32.40
2019-04-25T13:05:19.647Z,32.40
2019-04-25T13:07:58.376Z,32.90
2019-04-25T13:10:31.020Z,32.53
2019-04-25T13:13:05.764Z,32.55
2019-04-25T13:15:40.550Z,32.13
2019-04-25T13:18:15.259Z,32.73
2019-04-25T13:20:50.131Z,32.25
2019-04-25T13:23:24.847Z,32.60
2019-04-25T13:25:59.812Z,32.70
2019-04-25T13:28:44.543Z,32.88
2019-04-25T13:31:50.454Z,32.65
2019-04-25T13:34:36.265Z,33.73
2019-04-25T13:37:11.520Z,33.23
2019-04-25T13:39:46.313Z,33.30
2019-04-25T13:42:21.347Z,33.20
2019-04-25T13:44:56.706Z,32.73
2019-04-25T13:47:31.926Z,32.75
2019-04-25T13:50:07.507Z,33.18
2019-04-25T13:52:43.466Z,33.35
2019-04-25T13:55:18.271Z,33.88
2019-04-25T13:57:54.652Z,33.40
2019-04-25T14:00:30.249Z,33.35
2019-04-25T14:03:05.007Z,33.88
2019-04-25T14:05:40.447Z,34.05
2019-04-25T14:08:15.156Z,33.90
2019-04-25T14:10:50.072Z,33.80
2019-04-25T14:13:25.600Z,33.80
2019-04-25T14:16:11.190Z,33.65
2019-04-25T14:19:07.095Z,34.43
2019-04-25T14:21:43.417Z,34.67
2019-04-25T14:24:20.505Z,34.78
2019-04-25T14:26:55.043Z,34.67
2019-04-25T14:29:29.771Z,35.25
2019-04-25T14:32:07.240Z,35.28
2019-04-25T14:34:43.282Z,34.78
2019-04-25T14:37:18.236Z,34.83
2019-04-25T14:39:53.687Z,35.08
2019-04-25T14:42:29.442Z,35.45
2019-04-25T14:45:05.070Z,35.17
2019-04-25T14:47:39.852Z,35.70
2019-04-25T14:50:14.635Z,36.33
2019-04-25T14:52:49.444Z,35.75
2019-04-25T14:55:55.454Z,35.93
2019-04-25T14:58:32.729Z,35.98
2019-04-25T15:01:08.600Z,35.90
2019-04-25T15:03:43.337Z,36.15
2019-04-25T15:06:20.369Z,35.65
2019-04-25T15:08:55.307Z,35.83
2019-04-25T15:11:30.063Z,36.35
2019-04-25T15:14:04.903Z,36.10
2019-04-25T15:16:39.695Z,35.85
2019-04-25T15:19:14.559Z,36.15
2019-04-25T15:21:49.359Z,35.75
2019-04-25T15:24:25.031Z,36.30
2019-04-25T15:26:59.975Z,35.85
2019-04-25T15:29:34.849Z,35.92
2019-04-25T15:32:12.539Z,36.23
2019-04-25T15:34:52.835Z,35.43
2019-04-25T15:37:39.763Z,35.75
2019-04-25T15:40:25.268Z,37.97
2019-04-25T15:43:17.899Z,36.83
2019-04-25T15:45:58.166Z,36.48
2019-04-25T15:48:33.860Z,36.00
2019-04-25T15:51:09.795Z,36.28
2019-04-25T15:53:44.775Z,37.40
2019-04-25T15:56:19.566Z,35.88
2019-04-25T15:58:54.379Z,35.80
2019-04-25T16:01:29.170Z,34.15
2019-04-25T16:04:03.984Z,33.20
2019-04-25T16:06:38.935Z,33.28
2019-04-25T16:09:13.654Z,32.95
2019-04-25T16:11:48.566Z,32.70
2019-04-25T16:14:23.467Z,34.20
2019-04-25T16:16:59.207Z,32.80
2019-04-25T16:19:34.758Z,33.10
2019-04-25T16:22:09.714Z,32.85
2019-04-25T16:24:44.419Z,33.05
2019-04-25T16:27:19.536Z,33.00
2019-04-25T16:29:54.247Z,32.63
2019-04-25T16:32:29.231Z,32.25
2019-04-25T16:35:04.518Z,32.42
2019-04-25T16:37:39.306Z,32.23
2019-04-25T16:40:14.168Z,33.02
2019-04-25T16:42:49.097Z,32.20
2019-04-25T16:45:24.276Z,32.50
2019-04-25T16:47:59.154Z,32.40
2019-04-25T16:50:34.654Z,33.38
2019-04-25T16:53:09.463Z,32.25
2019-04-25T16:55:44.377Z,32.33
2019-04-25T16:58:19.240Z,33.28
2019-04-25T17:00:58.723Z,33.38
2019-04-25T17:03:35.293Z,32.38
2019-04-25T17:06:10.452Z,32.65
2019-04-25T17:08:45.356Z,33.13
2019-04-25T17:11:31.079Z,33.48
2019-04-25T17:14:17.876Z,32.55
2019-04-25T17:17:17.804Z,32.23
2019-04-25T17:20:11.487Z,33.70
2019-04-25T17:22:46.491Z,33.18
2019-04-25T17:25:21.582Z,32.10
2019-04-25T17:27:56.498Z,31.62
2019-04-25T17:30:33.281Z,31.77
2019-04-25T17:33:15.411Z,31.70
2019-04-25T17:36:09.199Z,32.25
2019-04-25T17:38:47.571Z,31.65
2019-04-25T17:41:41.528Z,31.25
2019-04-25T17:44:16.335Z,31.07
2019-04-25T17:46:51.198Z,31.45
2019-04-25T17:49:27.037Z,31.55
2019-04-25T17:52:01.879Z,31.27
2019-04-25T17:54:36.736Z,31.02
2019-04-25T17:57:11.556Z,31.25
2019-04-25T17:59:46.859Z,31.15
2019-04-25T18:02:21.952Z,31.15
2019-04-25T18:04:56.757Z,30.17
2019-04-25T18:07:31.459Z,30.60
2019-04-25T18:10:07.832Z,31.05
2019-04-25T18:12:42.551Z,31.05
2019-04-25T18:15:24.119Z,30.80
2019-04-25T18:18:00.401Z,31.17
2019-04-25T18:20:36.895Z,30.65
2019-04-25T18:23:27.670Z,32.23
2019-04-25T18:26:15.243Z,30.45
2019-04-25T18:28:52.504Z,31.48
2019-04-25T18:31:27.294Z,30.92
2019-04-25T18:34:05.216Z,30.73
2019-04-25T18:36:47.616Z,31.02
2019-04-25T18:39:47.763Z,31.30
2019-04-25T18:42:34.483Z,30.85
2019-04-25T18:45:12.259Z,30.10
2019-04-25T18:47:47.492Z,30.40
2019-04-25T18:50:24.682Z,30.73
2019-04-25T18:53:07.371Z,30.73
2019-04-25T18:55:57.743Z,31.23
2019-04-25T18:58:57.662Z,30.55
2019-04-25T19:01:54.747Z,30.90
2019-04-25T19:04:38.210Z,30.32
2019-04-25T19:07:22.461Z,30.57
2019-04-25T19:09:49.920Z,30.80
2019-04-25T19:12:28.068Z,30.80
2019-04-25T19:15:05.605Z,31.23
2019-04-25T19:17:41.372Z,30.82
2019-04-25T19:20:16.300Z,31.73
2019-04-25T19:22:52.548Z,32.17
2019-04-25T19:25:27.459Z,31.70
2019-04-25T19:28:02.323Z,31.35
2019-04-25T19:30:37.250Z,30.63
2019-04-25T19:33:11.991Z,32.00
2019-04-25T19:35:47.663Z,31.42
2019-04-25T19:38:22.539Z,30.93
2019-04-25T19:41:15.373Z,30.30
2019-04-25T19:44:12.072Z,30.67
2019-04-25T19:46:49.334Z,30.77
2019-04-25T19:49:24.155Z,30.72
2019-04-25T19:51:59.091Z,30.65
2019-04-25T19:54:33.915Z,30.62
2019-04-25T19:57:08.861Z,31.25
2019-04-25T19:59:44.622Z,31.23
2019-04-25T20:02:30.907Z,30.92
2019-04-25T20:05:21.360Z,30.72
2019-04-25T20:08:05.048Z,31.00
2019-04-25T20:10:48.954Z,30.80
2019-04-25T20:13:23.809Z,30.45
2019-04-25T20:15:58.651Z,30.70
2019-04-25T20:18:33.486Z,30.65
2019-04-25T20:21:08.278Z,31.23
2019-04-25T20:23:43.618Z,30.83
2019-04-25T20:26:19.479Z,30.70
2019-04-25T20:28:56.295Z,31.00
2019-04-25T20:31:31.017Z,31.17
2019-04-25T20:34:06.343Z,29.90
2019-04-25T20:36:41.183Z,30.48
2019-04-25T20:39:15.946Z,30.80
2019-04-25T20:41:50.680Z,31.00
2019-04-25T20:44:26.368Z,30.80
2019-04-25T20:47:01.167Z,30.63
2019-04-25T20:49:35.971Z,31.00
2019-04-25T20:52:10.769Z,31.12
2019-04-25T20:54:46.448Z,30.45
2019-04-25T20:57:21.892Z,30.72
2019-04-25T20:59:56.597Z,30.65
2019-04-25T21:02:31.322Z,30.80
2019-04-25T21:05:06.410Z,30.50
2019-04-25T21:07:42.159Z,30.43
2019-04-25T21:10:16.890Z,31.50
2019-04-25T21:12:51.827Z,30.17
2019-04-25T21:15:34.430Z,30.35
2019-04-25T21:18:22.643Z,30.60
2019-04-25T21:20:57.519Z,30.80
2019-04-25T21:23:32.260Z,30.45
2019-04-25T21:26:07.132Z,30.55
2019-04-25T21:28:41.999Z,30.93
2019-04-25T21:31:16.827Z,30.92
2019-04-25T21:33:52.570Z,30.37
2019-04-25T21:36:28.084Z,30.43
2019-04-25T21:39:05.046Z,30.00
2019-04-25T21:41:54.128Z,30.63
2019-04-25T21:44:29.224Z,29.92
2019-04-25T21:47:04.013Z,30.37
2019-04-25T21:49:39.103Z,30.53
2019-04-25T21:52:13.819Z,30.30
2019-04-25T21:54:48.800Z,30.90
2019-04-25T21:57:23.963Z,30.50
2019-04-25T22:00:06.123Z,30.63
2019-04-25T22:02:37.229Z,30.80
2019-04-25T22:05:12.732Z,30.23
2019-04-25T22:07:47.915Z,30.17
2019-04-25T22:10:23.063Z,30.80
2019-04-25T22:13:11.383Z,31.60
2019-04-25T22:15:34.580Z,30.77
2019-04-25T22:18:09.567Z,30.93
2019-04-25T22:20:44.441Z,30.73
2019-04-25T22:23:19.589Z,31.05
2019-04-25T22:25:54.624Z,31.37
2019-04-25T22:28:30.181Z,30.60
2019-04-25T22:31:09.627Z,30.50
2019-04-25T22:34:18.891Z,30.70
2019-04-25T22:36:54.154Z,30.47
2019-04-25T22:39:28.996Z,30.30
2019-04-25T22:42:04.255Z,30.23
2019-04-25T22:44:39.896Z,30.53
2019-04-25T22:47:17.375Z,30.20
2019-04-25T22:49:51.054Z,30.27
2019-04-25T22:52:26.129Z,30.63
2019-04-25T22:55:00.919Z,30.50
2019-04-25T22:57:36.957Z,30.33
2019-04-25T23:00:22.068Z,30.87
2019-04-25T23:03:05.168Z,31.10
2019-04-25T23:05:53.011Z,30.63
2019-04-25T23:08:28.979Z,30.43
2019-04-25T23:11:04.163Z,30.20
2019-04-25T23:13:38.883Z,30.55
2019-04-25T23:16:13.671Z,30.12
2019-04-25T23:18:48.383Z,30.40
2019-04-25T23:21:23.095Z,30.85
2019-04-25T23:23:57.812Z,30.60
2019-04-25T23:26:51.603Z,30.83
2019-04-25T23:29:26.416Z,30.70
2019-04-25T23:32:01.154Z,31.17
2019-04-25T23:34:36.483Z,30.43
2019-04-25T23:37:11.245Z,30.43
2019-04-25T23:39:46.333Z,30.93
2019-04-25T23:42:21.051Z,30.40
2019-04-25T23:44:55.935Z,30.48
2019-04-25T23:47:30.655Z,30.85
2019-04-25T23:50:07.200Z,30.96
2019-04-25T23:52:42.356Z,31.43
2019-04-25T23:55:17.333Z,31.03
2019-04-25T23:57:52.135Z,31.27
